createdAt,value
2019-03-12T00:00:48.496Z,4.00
2019-03-12T00:05:54.789Z,3.90
2019-03-12T00:10:59.333Z,3.90
2019-03-12T00:16:05.537Z,3.90
2019-03-12T00:21:08.867Z,3.80
2019-03-12T00:26:16.843Z,3.70
2019-03-12T00:31:20.222Z,3.70
2019-03-12T00:36:24.848Z,3.60
2019-03-12T00:41:31.736Z,3.60
2019-03-12T00:46:38.886Z,3.50
2019-03-12T00:51:43.161Z,3.40
2019-03-12T00:56:50.005Z,3.30
2019-03-12T01:01:57.362Z,3.20
2019-03-12T01:07:02.375Z,3.20
2019-03-12T01:12:10.147Z,3.20
2019-03-12T01:17:17.039Z,3.20
2019-03-12T01:22:26.093Z,3.30
2019-03-12T01:27:33.180Z,3.30
2019-03-12T01:32:36.498Z,3.20
2019-03-12T01:37:42.723Z,3.20
2019-03-12T01:42:48.427Z,3.10
2019-03-12T01:47:51.752Z,3.10
2019-03-12T01:52:55.145Z,3.00
2019-03-12T01:57:58.526Z,3.00
2019-03-12T02:03:01.958Z,2.90
2019-03-12T02:08:06.956Z,2.80
2019-03-12T02:13:11.681Z,2.70
2019-03-12T02:18:16.243Z,2.70
2019-03-12T02:23:21.485Z,2.60
2019-03-12T02:28:25.645Z,2.50
2019-03-12T02:33:28.966Z,2.30
2019-03-12T02:38:34.656Z,2.20
2019-03-12T02:43:39.901Z,2.10
2019-03-12T02:48:43.457Z,2.00
2019-03-12T02:53:52.024Z,1.90
2019-03-12T02:58:57.148Z,1.80
2019-03-12T03:04:01.042Z,1.70
2019-03-12T03:09:10.168Z,1.60
2019-03-12T03:14:34.617Z,1.60
2019-03-12T03:19:39.223Z,1.60
2019-03-12T03:24:42.973Z,1.50
2019-03-12T03:29:47.101Z,1.50
2019-03-12T03:34:50.816Z,1.60
2019-03-12T03:39:54.369Z,1.70
2019-03-12T03:44:57.870Z,1.80
2019-03-12T03:50:02.892Z,1.90
2019-03-12T03:55:09.631Z,2.00
2019-03-12T04:00:15.976Z,2.10
2019-03-12T04:05:21.071Z,2.10
2019-03-12T04:10:26.951Z,2.10
2019-03-12T04:15:30.521Z,2.00
2019-03-12T04:20:33.935Z,2.00
2019-03-12T04:25:37.386Z,2.00
2019-03-12T04:30:42.501Z,1.90
2019-03-12T04:35:49.457Z,2.00
2019-03-12T04:40:53.644Z,2.00
2019-03-12T04:46:00.050Z,1.90
2019-03-12T04:51:04.639Z,1.90
2019-03-12T04:56:08.508Z,1.90
2019-03-12T05:01:13.526Z,1.90
2019-03-12T05:06:19.609Z,1.80
2019-03-12T05:11:23.547Z,1.70
2019-03-12T05:16:27.420Z,1.70
2019-03-12T05:21:32.555Z,1.70
2019-03-12T05:26:35.895Z,1.80
2019-03-12T05:31:39.266Z,1.80
2019-03-12T05:36:46.154Z,1.90
2019-03-12T05:41:49.580Z,1.90
2019-03-12T05:46:52.950Z,2.10
2019-03-12T05:51:56.222Z,2.10
2019-03-12T05:57:00.972Z,2.20
2019-03-12T06:02:05.885Z,2.20
2019-03-12T06:07:12.048Z,2.10
2019-03-12T06:12:16.726Z,2.10
2019-03-12T06:17:20.077Z,2.10
2019-03-12T06:22:23.486Z,2.10
2019-03-12T06:27:26.843Z,2.30
2019-03-12T06:32:32.026Z,2.40
2019-03-12T06:37:49.094Z,2.50
2019-03-12T06:43:10.542Z,2.60
2019-03-12T06:48:30.723Z,2.80
2019-03-12T06:53:39.214Z,2.80
2019-03-12T06:58:53.243Z,3.00
2019-03-12T07:03:58.283Z,3.00
2019-03-12T07:09:03.458Z,3.10
2019-03-12T07:14:14.170Z,3.20
2019-03-12T07:19:36.467Z,3.20
2019-03-12T07:25:17.656Z,3.20
2019-03-12T07:30:34.440Z,3.50
2019-03-12T07:35:42.352Z,3.90
2019-03-12T07:40:50.053Z,3.90
2019-03-12T07:46:01.482Z,4.10
2019-03-12T07:51:19.733Z,4.10
2019-03-12T07:56:28.244Z,4.20
2019-03-12T08:01:33.811Z,4.50
2019-03-12T08:06:55.002Z,5.00
2019-03-12T08:12:16.602Z,5.30
2019-03-12T08:17:34.633Z,5.60
2019-03-12T08:22:45.476Z,5.90
2019-03-12T08:28:02.464Z,6.20
2019-03-12T08:33:07.562Z,6.40
2019-03-12T08:38:21.821Z,6.40
2019-03-12T08:43:27.028Z,6.70
2019-03-12T08:48:32.105Z,6.90
2019-03-12T08:53:46.347Z,6.90
2019-03-12T08:59:00.978Z,6.70
2019-03-12T09:04:07.998Z,5.90
2019-03-12T09:09:23.376Z,5.30
2019-03-12T09:14:31.902Z,5.00
2019-03-12T09:19:42.857Z,5.10
2019-03-12T09:24:56.831Z,5.40
2019-03-12T09:30:05.779Z,5.90
2019-03-12T09:35:13.269Z,6.90
2019-03-12T09:40:19.670Z,8.50
2019-03-12T09:45:25.079Z,11.90
2019-03-12T09:50:33.098Z,15.60
2019-03-12T09:55:51.682Z,16.70
2019-03-12T10:01:07.724Z,18.10
2019-03-12T10:06:14.135Z,22.20
2019-03-12T10:11:21.885Z,20.10
2019-03-12T10:16:38.187Z,14.50
2019-03-12T10:21:55.920Z,14.50
2019-03-12T10:27:20.900Z,12.40
2019-03-12T10:32:27.108Z,10.70
2019-03-12T10:37:33.066Z,13.50
2019-03-12T10:42:46.814Z,12.20
2019-03-12T10:47:52.589Z,13.70
2019-03-12T10:52:56.103Z,20.50
2019-03-12T10:58:00.798Z,18.60
2019-03-12T11:03:04.311Z,18.80
2019-03-12T11:08:07.697Z,14.90
2019-03-12T11:13:15.694Z,11.90
2019-03-12T11:18:20.494Z,10.30
2019-03-12T11:23:23.951Z,8.90
2019-03-12T11:28:27.866Z,13.30
2019-03-12T11:33:32.136Z,20.30
2019-03-12T11:38:35.549Z,24.30
2019-03-12T11:43:38.980Z,22.70
2019-03-12T11:48:42.717Z,19.00
2019-03-12T11:53:46.447Z,14.90
2019-03-12T11:58:49.800Z,13.00
2019-03-12T12:03:55.417Z,16.40
2019-03-12T12:08:58.809Z,22.30
2019-03-12T12:14:02.176Z,26.20
2019-03-12T12:19:06.161Z,24.90
2019-03-12T12:24:09.531Z,28.80
2019-03-12T12:29:13.048Z,29.40
2019-03-12T12:34:16.429Z,32.10
2019-03-12T12:39:19.754Z,33.60
2019-03-12T12:44:25.433Z,35.10
2019-03-12T12:49:31.346Z,35.30
2019-03-12T12:54:34.698Z,34.90
2019-03-12T12:59:38.662Z,30.20
2019-03-12T13:04:42.722Z,24.60
2019-03-12T13:09:46.167Z,25.10
2019-03-12T13:14:49.649Z,24.60
2019-03-12T13:19:53.082Z,27.20
2019-03-12T13:24:56.608Z,30.80
2019-03-12T13:30:01.350Z,32.80
2019-03-12T13:35:06.721Z,27.10
2019-03-12T13:40:15.284Z,20.60
2019-03-12T13:45:22.595Z,18.60
2019-03-12T13:50:26.712Z,16.00
2019-03-12T13:55:31.818Z,13.30
2019-03-12T14:00:36.823Z,11.50
2019-03-12T14:05:43.100Z,10.70
2019-03-12T14:10:46.494Z,10.10
2019-03-12T14:15:50.117Z,9.60
2019-03-12T14:21:07.423Z,9.10
2019-03-12T14:26:11.627Z,8.70
2019-03-12T14:31:14.942Z,8.30
2019-03-12T14:36:18.783Z,8.10
2019-03-12T14:41:22.122Z,8.10
2019-03-12T14:46:27.826Z,7.80
2019-03-12T14:51:37.940Z,7.50
2019-03-12T14:56:43.001Z,7.90
2019-03-12T15:01:48.666Z,7.10
2019-03-12T15:06:51.970Z,7.00
2019-03-12T15:12:02.115Z,6.90
2019-03-12T15:17:11.162Z,7.00
2019-03-12T15:22:14.616Z,7.00
2019-03-12T15:27:18.272Z,6.90
2019-03-12T15:32:22.468Z,6.70
2019-03-12T15:37:29.339Z,6.50
2019-03-12T15:42:33.059Z,6.50
2019-03-12T15:47:38.881Z,6.30
2019-03-12T15:52:41.690Z,6.30
2019-03-12T15:57:47.328Z,6.30
2019-03-12T16:02:52.821Z,6.20
2019-03-12T16:07:57.206Z,6.10
2019-03-12T16:13:02.265Z,5.90
2019-03-12T16:18:05.677Z,5.70
2019-03-12T16:23:18.530Z,5.50
2019-03-12T16:28:24.792Z,5.30
2019-03-12T16:38:59.830Z,5.10
2019-03-12T16:44:11.979Z,4.90
2019-03-12T16:49:22.477Z,4.80
2019-03-12T16:59:53.464Z,4.60
2019-03-12T17:05:02.748Z,4.50
2019-03-12T17:10:12.296Z,4.50
2019-03-12T17:15:21.854Z,4.40
2019-03-12T17:20:25.569Z,4.30
2019-03-12T17:25:32.023Z,4.10
2019-03-12T17:30:38.693Z,4.00
2019-03-12T17:35:52.839Z,3.90
2019-03-12T17:41:00.002Z,3.90
2019-03-12T17:46:05.649Z,3.80
2019-03-12T17:51:10.574Z,3.70
2019-03-12T17:56:16.432Z,3.60
2019-03-12T18:06:46.636Z,3.40
2019-03-12T18:11:50.552Z,3.30
2019-03-12T18:16:57.879Z,3.30
2019-03-12T18:22:04.956Z,3.20
2019-03-12T18:27:26.087Z,3.20
2019-03-12T18:32:46.451Z,3.10
2019-03-12T18:38:03.551Z,2.90
2019-03-12T18:54:11.830Z,2.60
2019-03-12T20:17:09.502Z,2.00
2019-03-12T20:22:41.591Z,2.00
2019-03-12T20:34:13.444Z,1.90
2019-03-12T20:39:44.822Z,1.80
2019-03-12T20:50:31.966Z,1.70
2019-03-12T20:55:58.992Z,1.70
2019-03-12T21:13:32.517Z,1.50
2019-03-12T21:19:13.302Z,1.50
2019-03-12T21:24:36.067Z,1.40
2019-03-12T21:35:14.754Z,1.30
2019-03-12T21:40:22.503Z,1.30
2019-03-12T21:56:40.318Z,1.20
2019-03-12T22:01:44.038Z,1.20
2019-03-12T22:06:52.044Z,1.20
2019-03-12T22:12:01.321Z,1.20
2019-03-12T22:17:07.525Z,1.20
2019-03-12T22:22:18.546Z,1.10
2019-03-12T22:27:27.746Z,1.10
2019-03-12T22:32:32.410Z,1.10
2019-03-12T22:43:05.507Z,1.00
2019-03-12T22:48:11.201Z,1.00
2019-03-12T22:53:21.091Z,1.00
2019-03-12T22:58:29.555Z,1.00
2019-03-12T23:03:34.592Z,1.00
2019-03-12T23:08:42.721Z,1.00
2019-03-12T23:13:49.331Z,1.00
2019-03-12T23:18:54.903Z,1.00
2019-03-12T23:24:01.438Z,1.00
2019-03-12T23:29:07.423Z,1.00
2019-03-12T23:34:14.722Z,1.00
2019-03-12T23:39:24.895Z,1.00
2019-03-12T23:44:28.349Z,1.00
2019-03-12T23:54:57.776Z,0.90
